Forside
METAR-TAF:

METAR-TAF

Lufthavne :

Fillmore County Airport

Preston, Minnesota, USA

Breddekreds: 43-40-36N, længdekreds: 092-10-47W, højde: 389 m

Aktuelle vejr

Denne rapport blev lavet for 28 minutter siden, kl. 03:16 UTC
Vind 7 kt fra vestnordvest
Temperatur -9°C
Fugtighed 73%
Tryk 1019 hPa
Sigt: 16.1 km
skyfri

METAR: KFKA 280316Z AUTO 29007KT 10SM CLR M09/M13 A3008 RMK AO2 T10931128

Tid: 21:44 (03:44 UTC)


TAF: fraværende

Vejrobservationer og prognoser fra mere end 4000 lufthavne (METAR og TAF).

De gule og røde prikker repræsenterer de meteorologiske stationer.

Flyt musen over at se navnet på stationen.

Så klik over at se vejr observationer og prognoser.

At skifte det kort: Klik på de grønne knapper med et sort kors for at zoome ind; på den grønne knap med en bindestreg for at zoome ud; eller på de grønne pile for tilstødende kort.


METAR-TAF: